Timeline UpdatesTrip UpdatesNews PostsPvt PostsTravel TipsAdmin PostsConv PostsFollowed PostsChat RequestsBlog PostsPNR Posts

Disclaimer
Search
 
 
Wed Sep 3, 2014 02:52:18 ISTHomeTrainsΣChainsAtlasPNRForumGalleryNewsFAQTripsMembersLoginFeedback
No Recent News for this Train
Other Trains in the News **new
Latest...
Partially Cancelled between Adarshnagar and Ajmer on 23rd and 24th March 2014.
Wed Mar 19, 2014 (08:09PM)
⇐ Return Journey: Train# 19654

19653/Ratlam-Ajmer Express

Time-Table HAS CHANGED.
Sep 01 (11:35PM)
Change Departure Station:
Change Arrival Station:
Post a Train Travel TipPost a Train Travel Tip **new
Post a Comment/Question/Picture/VideoPost a Comment/Question/Picture/Video
Pantry/Catering
✕ NO Pantry Car
✕ NO Catering
RSA - Rake Sharing
RSA with Jodhpur Ajmer Fast Passenger/54801/54802
Rake/Coach Composition
Loco SLR GEN GEN GEN GEN B1 S1 S2 GEN GEN GEN GEN GEN SLR; Total = 14 Coaches
Loco
BGKT/TKD WDP-4B/4D
News    PNR    Forum    Time-Table    Availability    Fare Chart    Map    Arr/Dep History    Trips    Gallery    ΣChains    X/O    Timeline    
Travel Time: 7h 15m    18 halts    Distance: 375 km    Avg Speed: 51 km/hr
Type: Mail/Express
Zone: NWR/North Western
Departs @ 06:40
Platform# 7
SMTWTFS
Ratlam Junction/RTM 
Arrives @ 13:55
Platform# 2
SMTWTFS
Ajmer Junction/AII 

18 halts. 51 intermediate Stations between Ratlam Junction and Ajmer Junction

Hide intermediate Stations  Show Old Time-Table

#CodeStation NameX/OArrivesAvgDepartsAvgHaltPFDay#KmSpeedElevZoneAddress
1RTM»Ratlam Junction (7)»  -06:40-710.060495mWRRatlam, Madhya Pradesh
1.1DHWSDhosawas  06:43-06:43-  13.3 60501mWRJaora Road, Madhya Pradesh
1.2NTDMNityanand Dham  06:48-06:48-  18.1 60497mWRNityanand Dham .ratlam, Madhya Pradesh
2NLINamli  06:53-06:55-2m--112.975494mWRNamli, Madhya Pradesh
2.1BRLABrayla ChaurasiX  07:04-07:04-  124.5 75486mWRBadayla Chorasi Rd, Madhya Pradesh
3JAOJaora (2)  07:11-07:13-2m--132.972476mWRJaora, Madhya Pradesh
3.1MDLMMundalaram  07:21-07:21-  142.6 72475mWRMundalaram, Madhya Pradesh
4DODDhodhar  07:27-07:29-2m--149.899478mWRDhodar, Madhya Pradesh
4.1KHNRKachnara  07:34-07:34-  157.3 99492mWRKachnara, Madhya Pradesh
4.2KCNRKachnara Road  07:35-07:35-  159.2 99498mWRSarsod, Madhya Pradesh
5DLDDalaudaX07:41-07:43-2m--169.788469mWRDalauda, Madhya Pradesh
6MDSMandsor (2)  07:53-07:55-2m--184.363436mWRMandsaur, Madhya Pradesh
6.1SDPNSindpan  08:04-08:04-  193.7 63471mWRSindpan, Madhya Pradesh
7PIPPiplia (1)  08:10-08:12-2m11100.053472mWRPanth Pipalia, Madhya Pradesh
8MLGMalhargarh  08:21-08:23-2m--1108.069466mWRMalhargarh, Madhya Pradesh
8.1MYKRMatyakheri Halt  08:28-08:28-  1113.6 69452mWRNational Highway 79, Madhya Pradesh
8.2HKLHarkia Khal  08:34-08:34-  1120.2 69455mWRState Highway 31, Rajasthan
8.3JMKLJamuniya Kalan  08:38-08:38-  1125.7 69471mWRJamunia Kalan, Madhya Pradesh
9NMHNimach (3)  08:50 08:45-08:55 08:50-5m--1133.366490mWRMDR 11A, Madhya Pradesh
9.1BIWKBisalwas Kalan  08:59-08:59-  1143.1 66477mWRMDR 11A, Rajasthan
10JWOJawad Road09:10 09:05-09:11 09:07-1 2m--1149.869462mWRNayagaon, Rajasthan
11NBHNimbahera (1)  09:17 09:16-09:19 09:18-2m11160.042441mWRNimbahera, Rajasthan
11.1GRFGambhiri Road  09:30-09:30-  1168.4 42441mWRNational Highway 79, Rajasthan
11.2SMPShambhupura09:35 09:43-09:36 09:43-  1177.6 42423mWRShambhupura, Rajasthan
11.3ORDIOrdi  09:53-09:53-  1184.4 42412mWRNational Highway 79, Rajasthan
12CORChittaurgarh Junction (5)  10:00-10:10-10m--1189.319403mWRChittorgarh, Rajasthan
12.1BECBerach Junction Cabin  10:18-10:18-  1191.9 19401mWRChittorgarh, Rajasthan
13CNAChanderiya (2)  10:32-10:34-2m--1196.289408mWRChittorgarh, Rajasthan
13.1DETDet  10:40-10:40-  1204.7 89404mNWRNational Highway 79, Rajasthan
14GGRGangrarX  10:44-10:46-2m--1211.172412mNWRGangrar, Rajasthan
14.1SNYNSoniyanaX  10:53-10:53-  1219.1 72409mNWRNational Highway 79, Rajasthan
15HMGHamirgarh  10:58-11:00-2m--1225.554416mNWRHamirgarh, Rajasthan
15.1MDPAMandpiya  11:09-11:09-  1233.9 54409mNWRNational Highway 79, Rajasthan
16BHLBhilwara (2)X  11:20-11:25-5m--1243.477425mNWRBhilwara, Rajasthan
16.1MDLMandal  11:34-11:34-  1254.7 77429mNWRMandal, Rajasthan
16.2DWLDhuwala  11:39-11:39-  1261.3 77448mNWRMali Khera, Rajasthan
16.3LMALambiya  11:47-11:47-  1271.3 77443mNWRLambia Kalan, Rajasthan
16.4RLRRaila Road  11:52-11:52-  1277.4 77435mNWRRaila, Rajasthan
17SSRSareri  11:57-11:59-2m--1284.383434mNWRNational Highway 79, Rajasthan
17.1BHASBhojras  12:06-12:06-  1294.7 83399mNWRBhilwara, Rajasthan
17.2RPIRupaheli  12:09-12:09-  1297.8 83401mNWRBhilwara, Rajasthan
17.3GBPGulabpura  12:16-12:16-  1308.1 83401mNWRGulabpura, Rajasthan
18BJNRBijainagar  12:19 12:18-12:21 12:20-2m--1310.678403mNWRBijainagar, Rajasthan
18.1MAKHMokhampura  12:25-12:25-  1317.1 78414mNWRNational Highway 79, Rajasthan
18.2SGWSingwal  12:30-12:30-  1323.0 78433mNWRNational Highway 79, Rajasthan
18.3BDWBandanwara  12:37-12:37-  1333.1 78416mNWRBandanwara, Rajasthan
18.4JWSJharwasaa (1)  12:44-12:44-  1341.5 78414mNWRAjmer Road, Rajasthan
19NSDNasirabad  12:52-12:54-2m--1352.323426mNWRNasirabad, Rajasthan
19.1ROSRajosi  13:08-13:08-  1357.7 23450mNWRMDR 79, Rajasthan
19.2LACLachhipuraX  13:15-13:15-  1360.1 23468mNWRMDR 79, Rajasthan
19.3HTDHatundi  13:27-13:27-  1364.9 23482mNWRAjmer, Rajasthan
19.4AHOAdarshnagar  13:41-13:41-  1370.0 23472mNWRAjmer, Rajasthan
20AII•Ajmer Junction (5)•  13:55--21375.4-464mNWRPin: 305001, Rajasthan
Scroll to Top
Scroll to Bottom